createdAt,value
2019-05-28T00:00:44.021Z,85.03
2019-05-28T00:01:43.974Z,85.40
2019-05-28T00:02:43.970Z,85.40
2019-05-28T00:03:43.961Z,85.71
2019-05-28T00:04:43.950Z,85.20
2019-05-28T00:05:43.967Z,85.91
2019-05-28T00:06:43.951Z,84.69
2019-05-28T00:07:43.907Z,84.89
2019-05-28T00:08:43.910Z,84.99
2019-05-28T00:09:43.936Z,85.50
2019-05-28T00:10:43.897Z,86.16
2019-05-28T00:11:43.890Z,86.22
2019-05-28T00:12:43.858Z,86.32
2019-05-28T00:13:43.843Z,86.32
2019-05-28T00:14:43.833Z,86.12
2019-05-28T00:15:43.846Z,85.50
2019-05-28T00:16:43.827Z,85.50
2019-05-28T00:17:43.839Z,86.12
2019-05-28T00:18:43.787Z,85.91
2019-05-28T00:19:43.799Z,85.81
2019-05-28T00:20:43.797Z,85.91
2019-05-28T00:21:43.755Z,85.50
2019-05-28T00:22:43.763Z,85.81
2019-05-28T00:23:43.726Z,86.32
2019-05-28T00:24:43.724Z,86.43
2019-05-28T00:25:43.756Z,86.22
2019-05-28T00:26:43.701Z,85.85
2019-05-28T00:27:43.683Z,86.16
2019-05-28T00:28:43.678Z,85.81
2019-05-28T00:29:43.691Z,86.02
2019-05-28T00:30:43.675Z,85.91
2019-05-28T00:31:43.645Z,86.53
2019-05-28T00:32:43.642Z,86.22
2019-05-28T00:33:43.633Z,84.28
2019-05-28T00:34:43.617Z,84.44
2019-05-28T00:35:43.640Z,84.14
2019-05-28T00:36:43.604Z,84.00
2019-05-28T00:37:43.588Z,83.07
2019-05-28T00:38:43.563Z,83.07
2019-05-28T00:39:43.561Z,82.67
2019-05-28T00:40:43.568Z,82.97
2019-05-28T00:41:43.566Z,82.46
2019-05-28T00:42:43.530Z,82.67
2019-05-28T00:43:43.510Z,83.18
2019-05-28T00:44:43.510Z,83.18
2019-05-28T00:45:43.507Z,82.77
2019-05-28T00:46:43.482Z,82.87
2019-05-28T00:47:43.469Z,83.07
2019-05-28T00:48:43.484Z,84.26
2019-05-28T00:49:44.150Z,82.93
2019-05-28T00:50:43.486Z,83.14
2019-05-28T00:51:43.419Z,82.63
2019-05-28T00:52:43.446Z,82.89
2019-05-28T00:53:43.419Z,82.18
2019-05-28T00:54:43.402Z,82.22
2019-05-28T00:55:43.429Z,82.01
2019-05-28T00:56:43.425Z,82.63
2019-05-28T00:57:43.364Z,82.83
2019-05-28T00:58:43.353Z,82.63
2019-05-28T00:59:43.337Z,83.14
2019-05-28T01:00:43.365Z,82.83
2019-05-28T01:01:43.332Z,82.97
2019-05-28T01:02:43.335Z,84.06
2019-05-28T01:03:43.295Z,83.89
2019-05-28T01:04:43.315Z,83.79
2019-05-28T01:05:43.302Z,83.95
2019-05-28T01:06:43.305Z,83.95
2019-05-28T01:07:43.263Z,83.75
2019-05-28T01:08:43.253Z,84.30
2019-05-28T01:09:43.228Z,83.95
2019-05-28T01:10:43.250Z,83.79
2019-05-28T01:11:43.227Z,84.20
2019-05-28T01:12:43.201Z,84.71
2019-05-28T01:13:43.187Z,84.81
2019-05-28T01:14:43.181Z,84.26
2019-05-28T01:15:43.215Z,84.06
2019-05-28T01:16:43.153Z,83.85
2019-05-28T01:17:43.173Z,84.16
2019-05-28T01:18:43.134Z,82.77
2019-05-28T01:19:43.141Z,83.14
2019-05-28T01:20:43.148Z,83.18
2019-05-28T01:21:43.108Z,82.56
2019-05-28T01:22:43.100Z,84.00
2019-05-28T01:23:43.117Z,84.30
2019-05-28T01:24:43.076Z,83.83
2019-05-28T01:25:43.104Z,83.73
2019-05-28T01:26:43.046Z,84.14
2019-05-28T01:27:43.051Z,84.24
2019-05-28T01:28:43.027Z,84.79
2019-05-28T01:29:43.026Z,84.65
2019-05-28T01:30:56.295Z,84.99
2019-05-28T01:31:43.990Z,84.69
2019-05-28T01:32:42.986Z,85.50
2019-05-28T01:33:42.976Z,86.53
2019-05-28T01:34:42.955Z,86.02
2019-05-28T01:35:42.996Z,86.53
2019-05-28T01:36:42.946Z,86.63
2019-05-28T01:37:42.926Z,86.53
2019-05-28T01:38:42.918Z,86.63
2019-05-28T01:39:42.904Z,86.63
2019-05-28T01:40:42.917Z,86.32
2019-05-28T01:41:42.900Z,86.22
2019-05-28T01:42:42.882Z,85.71
2019-05-28T01:43:42.876Z,86.53
2019-05-28T01:44:42.847Z,85.81
2019-05-28T01:45:42.871Z,85.67
2019-05-28T01:46:42.829Z,84.65
2019-05-28T01:47:42.820Z,84.89
2019-05-28T01:48:42.816Z,84.65
2019-05-28T01:49:42.859Z,84.24
2019-05-28T01:50:42.806Z,84.65
2019-05-28T01:51:42.787Z,84.24
2019-05-28T01:52:42.764Z,84.24
2019-05-28T01:53:42.756Z,84.03
2019-05-28T01:54:42.749Z,83.93
2019-05-28T01:55:42.763Z,83.79
2019-05-28T01:56:42.727Z,84.00
2019-05-28T01:57:42.746Z,84.09
2019-05-28T01:58:42.698Z,82.87
2019-05-28T01:59:42.688Z,83.07
2019-05-28T02:00:42.718Z,83.18
2019-05-28T02:01:42.670Z,83.07
2019-05-28T02:02:42.715Z,83.07
2019-05-28T02:03:42.648Z,82.77
2019-05-28T02:04:42.651Z,82.56
2019-05-28T02:05:42.646Z,82.56
2019-05-28T02:06:42.613Z,83.07
2019-05-28T02:07:42.607Z,83.07
2019-05-28T02:08:42.597Z,83.07
2019-05-28T02:09:42.585Z,83.28
2019-05-28T02:10:42.605Z,82.87
2019-05-28T02:11:42.579Z,83.22
2019-05-28T02:12:42.552Z,83.48
2019-05-28T02:13:42.545Z,83.89
2019-05-28T02:14:42.565Z,83.69
2019-05-28T02:15:42.559Z,83.79
2019-05-28T02:16:42.567Z,83.07
2019-05-28T02:17:42.504Z,81.95
2019-05-28T02:18:42.520Z,82.01
2019-05-28T02:19:42.494Z,82.01
2019-05-28T02:20:42.490Z,80.48
2019-05-28T02:21:42.451Z,80.38
2019-05-28T02:22:42.475Z,80.79
2019-05-28T02:23:42.426Z,79.25
2019-05-28T02:24:42.422Z,79.46
2019-05-28T02:25:42.435Z,79.66
2019-05-28T02:26:42.406Z,79.43
2019-05-28T02:27:42.387Z,79.36
2019-05-28T02:28:42.397Z,79.46
2019-05-28T02:29:42.397Z,79.66
2019-05-28T02:30:42.360Z,79.57
2019-05-28T02:31:42.381Z,79.66
2019-05-28T02:32:42.346Z,79.77
2019-05-28T02:33:42.324Z,79.57
2019-05-28T02:34:42.318Z,79.66
2019-05-28T02:35:42.342Z,79.36
2019-05-28T02:36:42.326Z,79.46
2019-05-28T02:37:42.289Z,79.22
2019-05-28T02:38:42.290Z,79.43
2019-05-28T02:39:42.280Z,79.52
2019-05-28T02:40:42.265Z,79.32
2019-05-28T02:41:42.264Z,79.22
2019-05-28T02:42:42.278Z,79.43
2019-05-28T02:43:42.220Z,79.63
2019-05-28T02:44:42.221Z,79.22
2019-05-28T02:45:42.192Z,79.52
2019-05-28T02:46:43.504Z,79.63
2019-05-28T02:47:42.175Z,79.83
2019-05-28T02:48:42.166Z,79.83
2019-05-28T02:49:42.149Z,80.04
2019-05-28T02:50:42.158Z,80.44
2019-05-28T02:51:42.146Z,80.55
2019-05-28T02:52:42.174Z,80.44
2019-05-28T02:53:42.127Z,80.10
2019-05-28T02:54:42.098Z,79.90
2019-05-28T02:55:42.095Z,80.55
2019-05-28T02:56:42.094Z,80.14
2019-05-28T02:57:42.064Z,80.34
2019-05-28T02:58:42.050Z,80.96
2019-05-28T02:59:42.043Z,81.16
2019-05-28T03:00:42.027Z,81.16
2019-05-28T03:01:44.690Z,81.94
2019-05-28T03:02:42.010Z,81.32
2019-05-28T03:03:41.990Z,82.04
2019-05-28T03:04:41.977Z,81.84
2019-05-28T03:05:41.965Z,82.89
2019-05-28T03:06:41.988Z,82.69
2019-05-28T03:07:41.946Z,82.49
2019-05-28T03:08:41.943Z,83.30
2019-05-28T03:09:41.961Z,82.89
2019-05-28T03:11:42.938Z,83.75
2019-05-28T03:12:41.929Z,84.16
2019-05-28T03:13:41.883Z,84.57
2019-05-28T03:14:41.865Z,84.57
2019-05-28T03:15:41.862Z,84.71
2019-05-28T03:16:41.899Z,85.73
2019-05-28T03:17:41.829Z,85.73
2019-05-28T03:18:41.830Z,86.14
2019-05-28T03:19:41.845Z,86.65
2019-05-28T03:20:41.799Z,86.65
2019-05-28T03:21:41.822Z,86.85
2019-05-28T03:22:41.801Z,86.76
2019-05-28T03:23:41.790Z,87.47
2019-05-28T03:24:41.776Z,87.77
2019-05-28T03:25:41.748Z,88.39
2019-05-28T03:26:41.792Z,87.98
2019-05-28T03:27:41.748Z,87.94
2019-05-28T03:28:41.741Z,87.02
2019-05-28T03:29:41.715Z,86.71
2019-05-28T03:30:41.741Z,86.61
2019-05-28T03:31:41.712Z,86.10
2019-05-28T03:32:41.852Z,86.41
2019-05-28T03:33:41.754Z,86.10
2019-05-28T03:34:42.326Z,85.69
2019-05-28T03:35:41.682Z,85.49
2019-05-28T03:36:41.691Z,85.79
2019-05-28T03:37:41.618Z,84.98
2019-05-28T03:38:41.601Z,85.69
2019-05-28T03:39:41.595Z,84.47
2019-05-28T03:40:41.657Z,84.47
2019-05-28T03:41:41.605Z,84.67
2019-05-28T03:42:41.560Z,84.67
2019-05-28T03:43:41.552Z,84.77
2019-05-28T03:44:41.575Z,84.26
2019-05-28T03:45:41.590Z,84.26
2019-05-28T03:46:41.535Z,84.67
2019-05-28T03:47:41.515Z,84.63
2019-05-28T03:48:41.496Z,84.26
2019-05-28T03:49:41.498Z,84.88
2019-05-28T03:50:41.473Z,85.69
2019-05-28T03:51:41.512Z,86.06
2019-05-28T03:52:41.467Z,86.36
2019-05-28T03:53:41.433Z,87.18
2019-05-28T03:54:41.423Z,87.79
2019-05-28T03:55:41.485Z,88.04
2019-05-28T03:56:46.447Z,89.06
2019-05-28T03:57:41.409Z,89.35
2019-05-28T03:58:41.378Z,90.58
2019-05-28T03:59:41.365Z,91.60
2019-05-28T04:00:41.364Z,91.50
2019-05-28T04:01:42.349Z,93.07
2019-05-28T04:02:41.365Z,92.97
2019-05-28T04:03:41.352Z,93.69
2019-05-28T04:04:41.322Z,93.07
2019-05-28T04:05:41.321Z,93.28
2019-05-28T04:06:41.317Z,93.43
2019-05-28T04:07:41.320Z,94.81
2019-05-28T04:08:41.278Z,95.22
2019-05-28T04:09:41.274Z,95.63
2019-05-28T04:10:41.273Z,96.19
2019-05-28T04:11:45.105Z,96.29
2019-05-28T04:12:41.285Z,96.39
2019-05-28T04:13:41.235Z,96.29
2019-05-28T04:14:41.264Z,96.54
2019-05-28T04:15:41.344Z,96.54
2019-05-28T04:16:43.414Z,97.05
2019-05-28T04:17:41.273Z,97.36
2019-05-28T04:19:04.224Z,97.87
2019-05-28T04:19:56.866Z,97.66
2019-05-28T04:28:50.052Z,99.99
2019-05-28T04:59:17.222Z,99.99
2019-05-28T05:00:14.918Z,99.99
2019-05-28T05:01:09.132Z,99.99
2019-05-28T05:02:15.088Z,99.99
2019-05-28T05:03:17.009Z,99.99
2019-05-28T05:04:08.010Z,99.99
2019-05-28T05:05:08.037Z,99.99
2019-05-28T05:06:08.005Z,99.99
2019-05-28T05:07:10.290Z,99.99
2019-05-28T05:08:07.892Z,99.99
2019-05-28T05:09:07.898Z,99.99
2019-05-28T05:10:08.267Z,99.99
2019-05-28T05:11:08.271Z,99.99
2019-05-28T05:12:27.138Z,99.99
2019-05-28T05:13:07.902Z,99.99
2019-05-28T05:14:08.368Z,99.99
2019-05-28T05:15:08.928Z,99.99
2019-05-28T05:16:08.269Z,99.78
2019-05-28T05:17:13.602Z,99.52
2019-05-28T05:18:07.635Z,99.63
2019-05-28T05:19:07.714Z,99.84
2019-05-28T05:20:07.885Z,99.52
2019-05-28T05:21:07.780Z,99.48
2019-05-28T05:22:07.570Z,99.84
2019-05-28T05:23:07.679Z,99.38
2019-05-28T05:24:07.531Z,99.58
2019-05-28T05:25:07.554Z,98.97
2019-05-28T05:26:07.565Z,99.02
2019-05-28T05:27:08.556Z,99.43
2019-05-28T05:28:07.495Z,98.41
2019-05-28T05:29:07.423Z,98.41
2019-05-28T05:30:07.505Z,98.41
2019-05-28T05:31:07.440Z,97.70
2019-05-28T05:32:10.758Z,97.70
2019-05-28T05:33:19.917Z,97.55
2019-05-28T05:34:08.372Z,97.70
2019-05-28T05:35:07.425Z,96.98
2019-05-28T05:36:07.377Z,97.14
2019-05-28T05:37:07.384Z,96.73
2019-05-28T05:38:07.400Z,96.94
2019-05-28T05:39:07.293Z,96.69
2019-05-28T05:40:07.380Z,96.69
2019-05-28T05:41:07.243Z,95.93
2019-05-28T05:42:07.275Z,95.57
2019-05-28T05:43:07.246Z,96.18
2019-05-28T05:44:07.226Z,96.59
2019-05-28T05:45:07.844Z,96.08
2019-05-28T05:46:07.191Z,96.18
2019-05-28T05:47:07.902Z,94.55
2019-05-28T05:48:07.197Z,96.28
2019-05-28T05:49:07.148Z,95.32
2019-05-28T05:50:07.200Z,95.32
2019-05-28T05:51:07.168Z,95.32
2019-05-28T05:52:07.190Z,94.71
2019-05-28T05:53:07.110Z,94.30
2019-05-28T05:54:07.106Z,94.97
2019-05-28T05:55:07.142Z,92.23
2019-05-28T05:56:07.137Z,92.58
2019-05-28T05:57:07.882Z,90.81
2019-05-28T05:58:07.079Z,90.25
2019-05-28T05:59:07.052Z,89.20
2019-05-28T06:00:10.634Z,88.28
2019-05-28T06:01:07.060Z,87.57
2019-05-28T06:02:07.063Z,89.26
2019-05-28T06:03:07.006Z,88.89
2019-05-28T06:04:06.994Z,89.09
2019-05-28T06:05:06.992Z,89.40
2019-05-28T06:06:06.986Z,89.15
2019-05-28T06:07:06.998Z,89.26
2019-05-28T06:08:07.023Z,89.26
2019-05-28T06:09:07.054Z,89.36
2019-05-28T06:10:07.196Z,88.75
2019-05-28T06:11:06.993Z,88.53
2019-05-28T06:12:06.962Z,89.07
2019-05-28T06:13:06.904Z,90.30
2019-05-28T06:14:07.019Z,91.36
2019-05-28T06:15:06.940Z,91.31
2019-05-28T06:16:06.918Z,90.55
2019-05-28T06:17:10.973Z,91.36
2019-05-28T06:18:06.921Z,92.03
2019-05-28T06:19:07.661Z,92.13
2019-05-28T06:20:06.844Z,92.07
2019-05-28T06:21:13.226Z,92.07
2019-05-28T06:22:08.409Z,92.68
2019-05-28T06:23:06.816Z,92.52
2019-05-28T06:24:07.008Z,92.22
2019-05-28T06:25:06.819Z,92.63
2019-05-28T06:26:07.028Z,92.77
2019-05-28T06:27:06.851Z,93.48
2019-05-28T06:28:06.809Z,93.18
2019-05-28T06:29:06.735Z,93.89
2019-05-28T06:30:06.739Z,93.89
2019-05-28T06:31:06.712Z,93.69
2019-05-28T06:32:06.800Z,94.56
2019-05-28T06:33:06.719Z,93.95
2019-05-28T06:34:06.722Z,93.24
2019-05-28T06:35:06.782Z,93.44
2019-05-28T06:36:06.656Z,93.24
2019-05-28T06:37:25.606Z,92.83
2019-05-28T06:38:06.636Z,91.81
2019-05-28T06:39:06.703Z,92.93
2019-05-28T06:40:06.613Z,91.03
2019-05-28T06:41:06.596Z,91.08
2019-05-28T06:42:26.472Z,93.12
2019-05-28T06:43:06.564Z,93.02
2019-05-28T06:44:06.587Z,93.32
2019-05-28T06:45:06.551Z,92.91
2019-05-28T06:46:06.655Z,92.81
2019-05-28T06:47:06.667Z,93.63
2019-05-28T06:48:18.916Z,93.43
2019-05-28T06:49:06.524Z,94.04
2019-05-28T06:50:06.497Z,93.93
2019-05-28T06:51:06.480Z,94.20
2019-05-28T06:52:06.468Z,92.71
2019-05-28T06:56:11.775Z,92.16
2019-05-28T06:57:22.409Z,91.03
2019-05-28T07:00:06.338Z,91.65
2019-05-28T07:01:03.659Z,91.79
2019-05-28T07:02:03.310Z,92.41
2019-05-28T07:03:32.496Z,91.69
2019-05-28T07:04:13.408Z,92.41
2019-05-28T07:05:04.118Z,93.02
2019-05-28T07:06:07.343Z,94.04
2019-05-28T07:11:21.045Z,96.08
2019-05-28T07:12:18.369Z,96.28
2019-05-28T07:13:27.707Z,95.87
2019-05-28T07:14:17.562Z,96.08
2019-05-28T07:15:17.692Z,97.09
2019-05-28T07:16:17.571Z,96.28
2019-05-28T07:17:17.742Z,96.18
2019-05-28T07:18:20.220Z,96.38
2019-05-28T07:19:24.609Z,95.97
2019-05-28T07:20:18.844Z,96.79
2019-05-28T07:21:17.812Z,97.20
2019-05-28T07:41:06.606Z,98.46
2019-05-28T07:41:56.997Z,98.81
2019-05-28T07:42:56.999Z,99.63
2019-05-28T07:43:56.989Z,99.93
2019-05-28T07:44:56.989Z,99.99
2019-05-28T07:45:56.941Z,99.99
2019-05-28T07:46:56.959Z,99.99
2019-05-28T07:48:01.909Z,99.99
2019-05-28T07:48:56.938Z,99.99
2019-05-28T07:49:56.915Z,99.99
2019-05-28T07:50:56.914Z,99.99
2019-05-28T07:51:56.896Z,99.99
2019-05-28T07:52:56.950Z,99.99
2019-05-28T07:53:56.879Z,99.99
2019-05-28T07:54:56.857Z,99.99
2019-05-28T07:55:56.890Z,99.99
2019-05-28T07:56:56.815Z,99.99
2019-05-28T07:57:56.857Z,99.99
2019-05-28T07:58:56.811Z,99.99
2019-05-28T07:59:56.993Z,99.99
2019-05-28T08:00:56.778Z,99.99
2019-05-28T08:01:56.798Z,99.99
2019-05-28T08:02:56.802Z,99.99
2019-05-28T08:03:56.762Z,99.99
2019-05-28T08:04:56.744Z,99.99
2019-05-28T08:05:56.954Z,99.99
2019-05-28T08:06:56.714Z,99.99
2019-05-28T08:07:57.144Z,99.99
2019-05-28T08:08:56.811Z,99.99
2019-05-28T08:09:56.691Z,99.99
2019-05-28T08:10:56.689Z,99.99
2019-05-28T08:11:56.652Z,99.99
2019-05-28T08:12:56.690Z,99.99
2019-05-28T08:13:56.636Z,99.99
2019-05-28T08:14:56.627Z,99.99
2019-05-28T08:16:14.763Z,99.99
2019-05-28T08:16:57.606Z,99.99
2019-05-28T08:17:56.656Z,99.99
2019-05-28T08:18:56.579Z,99.99
2019-05-28T08:19:56.570Z,99.99
2019-05-28T08:20:56.563Z,99.99
2019-05-28T08:21:56.551Z,99.99
2019-05-28T08:23:07.744Z,99.99
2019-05-28T08:23:56.543Z,99.99
2019-05-28T08:24:56.520Z,99.99
2019-05-28T08:25:56.564Z,99.99
2019-05-28T08:26:56.525Z,99.99
2019-05-28T08:28:18.831Z,99.99
2019-05-28T08:28:59.606Z,99.99
2019-05-28T08:29:56.588Z,99.99
2019-05-28T08:31:13.720Z,99.99
2019-05-28T08:31:57.485Z,99.99
2019-05-28T08:32:56.469Z,99.99
2019-05-28T08:34:07.014Z,99.99
2019-05-28T08:35:05.395Z,99.99
2019-05-28T08:37:22.764Z,99.99
2019-05-28T08:38:34.991Z,99.99
2019-05-28T08:39:33.498Z,99.99
2019-05-28T08:40:22.620Z,99.99
2019-05-28T08:41:22.567Z,99.99
2019-05-28T08:42:22.542Z,99.99
2019-05-28T08:44:02.442Z,99.99
2019-05-28T08:44:22.511Z,99.99
2019-05-28T08:45:22.551Z,99.99
2019-05-28T08:46:25.731Z,99.99
2019-05-28T08:47:23.571Z,99.99
2019-05-28T08:50:35.201Z,99.99
2019-05-28T08:51:32.773Z,99.99
2019-05-28T08:52:32.798Z,99.99
2019-05-28T08:53:50.568Z,99.99
2019-05-28T08:54:32.730Z,99.99
2019-05-28T08:55:32.922Z,99.99
2019-05-28T08:56:32.697Z,99.99
2019-05-28T08:57:32.946Z,99.99
2019-05-28T08:58:38.930Z,99.99
2019-05-28T09:10:57.832Z,99.99
2019-05-28T09:11:36.887Z,99.38
2019-05-28T09:12:36.666Z,99.99
2019-05-28T09:17:53.792Z,98.31
2019-05-28T09:18:53.965Z,97.74
2019-05-28T09:19:54.046Z,97.44
2019-05-28T09:20:53.693Z,98.11
2019-05-28T09:21:53.553Z,98.15
2019-05-28T09:22:53.615Z,97.64
2019-05-28T09:23:56.664Z,97.85
2019-05-28T09:24:53.622Z,97.64
2019-05-28T09:25:53.593Z,97.74
2019-05-28T09:26:53.539Z,97.03
2019-05-28T09:27:53.517Z,96.67
2019-05-28T09:28:56.684Z,96.46
2019-05-28T09:29:55.387Z,96.56
2019-05-28T09:30:53.451Z,96.62
2019-05-28T09:31:53.466Z,96.92
2019-05-28T09:32:53.433Z,97.13
2019-05-28T09:33:56.673Z,96.68
2019-05-28T09:34:53.488Z,97.29
2019-05-28T09:36:07.257Z,96.42
2019-05-28T09:36:54.405Z,96.62
2019-05-28T09:37:53.458Z,96.01
2019-05-28T09:38:53.410Z,96.11
2019-05-28T09:39:53.356Z,95.80
2019-05-28T09:40:53.345Z,95.60
2019-05-28T09:41:53.344Z,96.42
2019-05-28T09:42:53.320Z,96.83
2019-05-28T09:44:07.672Z,96.72
2019-05-28T09:44:53.308Z,96.78
2019-05-28T09:45:53.335Z,96.98
2019-05-28T09:46:53.348Z,96.98
2019-05-28T09:47:55.315Z,97.34
2019-05-28T09:48:55.036Z,97.08
2019-05-28T09:49:56.226Z,96.94
2019-05-28T09:50:53.270Z,96.84
2019-05-28T09:51:53.264Z,97.14
2019-05-28T09:52:55.314Z,96.94
2019-05-28T09:55:48.005Z,96.33
2019-05-28T09:56:35.053Z,96.78
2019-05-28T09:57:46.850Z,97.24
2019-05-28T09:58:36.991Z,96.43
2019-05-28T09:59:41.655Z,96.73
2019-05-28T10:00:35.935Z,97.09
2019-05-28T10:01:37.222Z,96.44
2019-05-28T10:02:34.988Z,96.95
2019-05-28T10:03:34.987Z,97.00
2019-05-28T10:04:48.092Z,96.34
2019-05-28T10:05:35.890Z,96.09
2019-05-28T10:06:37.400Z,96.60
2019-05-28T10:07:35.308Z,96.35
2019-05-28T10:08:35.446Z,96.35
2019-05-28T10:09:34.905Z,96.55
2019-05-28T10:10:34.909Z,96.15
2019-05-28T10:11:34.857Z,95.94
2019-05-28T10:12:34.842Z,95.64
2019-05-28T10:14:14.349Z,94.66
2019-05-28T10:14:34.850Z,95.07
2019-05-28T10:15:34.867Z,94.56
2019-05-28T10:16:34.770Z,94.56
2019-05-28T10:17:34.943Z,95.03
2019-05-28T10:22:49.246Z,93.71
2019-05-28T10:30:49.655Z,92.54
2019-05-28T10:35:03.969Z,91.14
2019-05-28T10:35:57.003Z,90.33
2019-05-28T10:36:55.964Z,89.31
2019-05-28T10:37:56.383Z,90.03
2019-05-28T10:43:07.504Z,88.40
2019-05-28T10:52:23.413Z,85.37
2019-05-28T10:53:23.073Z,86.55
2019-05-28T10:54:23.991Z,85.78
2019-05-28T10:55:25.524Z,86.96
2019-05-28T10:56:22.979Z,87.43
2019-05-28T10:59:04.974Z,85.92
2019-05-28T11:00:04.569Z,85.21
2019-05-28T11:01:04.363Z,86.27
2019-05-28T11:02:06.276Z,86.27
2019-05-28T11:03:04.342Z,86.31
2019-05-28T11:04:25.740Z,87.73
2019-05-28T11:05:04.512Z,87.95
2019-05-28T11:06:04.549Z,85.62
2019-05-28T11:07:04.443Z,86.07
2019-05-28T11:08:04.307Z,85.39
2019-05-28T11:09:19.497Z,85.39
2019-05-28T11:10:20.335Z,86.04
2019-05-28T11:11:05.281Z,86.51
2019-05-28T11:12:04.257Z,86.82
2019-05-28T11:13:04.287Z,87.23
2019-05-28T11:14:33.954Z,87.84
2019-05-28T11:15:04.208Z,88.04
2019-05-28T11:16:04.273Z,88.65
2019-05-28T11:17:04.235Z,88.75
2019-05-28T11:18:04.250Z,88.85
2019-05-28T11:20:35.070Z,89.15
2019-05-28T11:21:30.800Z,88.13
2019-05-28T11:22:30.915Z,89.09
2019-05-28T11:23:30.813Z,88.39
2019-05-28T11:24:52.143Z,89.40
2019-05-28T11:25:30.810Z,89.50
2019-05-28T11:26:30.832Z,90.31
2019-05-28T11:27:30.799Z,88.48
2019-05-28T11:28:30.747Z,88.63
2019-05-28T11:29:43.549Z,86.43
2019-05-28T11:30:30.999Z,86.41
2019-05-28T11:31:30.715Z,88.14
2019-05-28T11:32:30.700Z,88.81
2019-05-28T11:33:30.768Z,87.79
2019-05-28T11:34:45.151Z,87.90
2019-05-28T11:35:30.801Z,89.03
2019-05-28T11:36:30.652Z,88.89
2019-05-28T11:37:30.678Z,88.40
2019-05-28T11:38:30.636Z,86.37
2019-05-28T11:39:35.612Z,86.02
2019-05-28T11:40:30.618Z,84.20
2019-05-28T11:41:41.337Z,84.16
2019-05-28T11:42:31.584Z,82.42
2019-05-28T11:43:30.567Z,81.49
2019-05-28T11:44:34.493Z,80.84
2019-05-28T11:45:30.566Z,80.36
2019-05-28T11:46:30.538Z,79.08
2019-05-28T11:47:30.615Z,79.43
2019-05-28T11:48:30.510Z,80.34
2019-05-28T11:49:30.533Z,80.44
2019-05-28T11:50:30.537Z,79.36
2019-05-28T11:51:30.574Z,79.77
2019-05-28T11:52:30.473Z,78.88
2019-05-28T11:53:30.457Z,78.64
2019-05-28T11:54:30.515Z,79.66
2019-05-28T11:55:30.463Z,80.24
2019-05-28T11:56:30.613Z,80.07
2019-05-28T11:57:30.416Z,77.72
2019-05-28T11:58:30.428Z,82.92
2019-05-28T11:59:44.647Z,82.31
2019-05-28T12:00:30.388Z,83.73
2019-05-28T12:01:34.458Z,83.91
2019-05-28T12:02:30.450Z,83.34
2019-05-28T12:03:30.790Z,84.16
2019-05-28T12:04:49.671Z,83.54
2019-05-28T12:05:30.325Z,81.21
2019-05-28T12:06:30.314Z,82.64
2019-05-28T12:07:30.338Z,84.05
2019-05-28T12:08:30.341Z,83.65
2019-05-28T12:09:30.330Z,83.95
2019-05-28T12:10:30.490Z,84.40
2019-05-28T12:11:30.263Z,85.62
2019-05-28T12:12:30.323Z,85.17
2019-05-28T12:13:30.713Z,84.16
2019-05-28T12:14:30.290Z,83.95
2019-05-28T12:15:30.222Z,83.75
2019-05-28T12:16:30.363Z,85.47
2019-05-28T12:17:41.924Z,85.47
2019-05-28T12:18:31.232Z,86.55
2019-05-28T12:19:33.695Z,85.68
2019-05-28T12:20:30.369Z,86.35
2019-05-28T12:21:30.215Z,86.55
2019-05-28T12:22:30.251Z,87.57
2019-05-28T12:23:30.366Z,87.57
2019-05-28T12:24:30.268Z,87.26
2019-05-28T12:25:30.621Z,86.49
2019-05-28T12:26:30.182Z,86.22
2019-05-28T12:27:30.295Z,86.22
2019-05-28T12:28:37.822Z,87.59
2019-05-28T12:29:31.222Z,87.49
2019-05-28T12:30:30.046Z,87.34
2019-05-28T12:31:30.088Z,87.24
2019-05-28T12:32:33.773Z,85.62
2019-05-28T12:33:30.426Z,85.21
2019-05-28T12:34:30.020Z,86.53
2019-05-28T12:35:30.515Z,87.71
2019-05-28T12:36:30.122Z,87.40
2019-05-28T12:37:47.386Z,87.71
2019-05-28T12:38:31.118Z,87.71
2019-05-28T12:39:30.031Z,88.21
2019-05-28T12:40:46.319Z,87.71
2019-05-28T12:41:31.462Z,87.71
2019-05-28T12:42:29.961Z,86.39
2019-05-28T12:43:29.922Z,88.42
2019-05-28T12:44:42.480Z,87.55
2019-05-28T12:45:35.507Z,86.68
2019-05-28T12:46:30.960Z,88.26
2019-05-28T12:47:30.109Z,87.85
2019-05-28T12:48:29.846Z,87.00
2019-05-28T12:49:30.836Z,86.39
2019-05-28T12:50:29.962Z,85.98
2019-05-28T12:51:29.838Z,85.98
2019-05-28T12:52:29.834Z,85.07
2019-05-28T12:53:48.113Z,84.91
2019-05-28T12:54:32.493Z,84.91
2019-05-28T12:55:29.804Z,85.01
2019-05-28T12:56:29.781Z,85.31
2019-05-28T12:57:29.869Z,85.62
2019-05-28T12:58:41.637Z,85.11
2019-05-28T12:59:31.538Z,85.41
2019-05-28T13:00:30.054Z,82.98
2019-05-28T13:01:29.768Z,83.32
2019-05-28T13:02:29.704Z,85.35
2019-05-28T13:03:29.684Z,84.91
2019-05-28T13:04:29.708Z,85.38
2019-05-28T13:05:29.679Z,85.68
2019-05-28T13:06:29.702Z,83.34
2019-05-28T13:07:29.672Z,83.99
2019-05-28T13:08:29.621Z,84.20
2019-05-28T13:09:42.281Z,83.48
2019-05-28T13:10:29.651Z,83.79
2019-05-28T13:11:29.616Z,83.62
2019-05-28T13:12:29.594Z,83.93
2019-05-28T13:13:29.762Z,83.93
2019-05-28T13:14:29.593Z,84.23
2019-05-28T13:15:29.705Z,81.12
2019-05-28T13:16:29.571Z,81.63
2019-05-28T13:17:29.651Z,81.67
2019-05-28T13:18:29.653Z,83.81
2019-05-28T13:19:30.618Z,84.31
2019-05-28T13:20:29.502Z,82.99
2019-05-28T13:21:29.572Z,83.50
2019-05-28T13:22:29.480Z,83.29
2019-05-28T13:23:29.548Z,83.81
2019-05-28T13:24:31.147Z,85.49
2019-05-28T13:25:29.553Z,85.66
2019-05-28T13:26:29.465Z,85.49
2019-05-28T13:27:30.191Z,86.07
2019-05-28T13:28:29.482Z,85.46
2019-05-28T13:29:38.007Z,85.46
2019-05-28T13:30:29.680Z,84.13
2019-05-28T13:31:29.416Z,85.15
2019-05-28T13:32:29.385Z,85.01
2019-05-28T13:33:29.382Z,85.41
2019-05-28T13:34:29.398Z,84.09
2019-05-28T13:35:29.360Z,83.85
2019-05-28T13:36:29.331Z,83.85
2019-05-28T13:37:29.424Z,83.69
2019-05-28T13:38:30.142Z,85.01
2019-05-28T13:39:29.283Z,84.64
2019-05-28T13:40:29.981Z,85.49
2019-05-28T13:41:29.259Z,86.00
2019-05-28T13:42:29.248Z,85.80
2019-05-28T13:43:29.304Z,85.49
2019-05-28T13:44:29.252Z,86.21
2019-05-28T13:45:35.526Z,85.76
2019-05-28T13:46:29.204Z,85.29
2019-05-28T13:47:33.511Z,85.39
2019-05-28T13:48:30.214Z,84.28
2019-05-28T13:49:29.302Z,84.48
2019-05-28T13:50:29.600Z,84.99
2019-05-28T13:51:29.148Z,85.70
2019-05-28T13:52:29.144Z,85.80
2019-05-28T13:53:29.139Z,86.41
2019-05-28T13:54:29.226Z,85.90
2019-05-28T13:55:29.994Z,86.10
2019-05-28T13:56:29.375Z,85.03
2019-05-28T13:57:29.104Z,86.25
2019-05-28T13:58:29.091Z,85.98
2019-05-28T13:59:29.087Z,85.68
2019-05-28T14:00:29.112Z,85.84
2019-05-28T14:01:29.076Z,86.25
2019-05-28T14:02:29.174Z,85.09
2019-05-28T14:03:29.036Z,85.49
2019-05-28T14:04:29.021Z,84.28
2019-05-28T14:05:29.020Z,83.67
2019-05-28T14:06:29.022Z,83.56
2019-05-28T14:07:29.012Z,83.46
2019-05-28T14:08:44.638Z,83.76
2019-05-28T14:09:29.947Z,83.97
2019-05-28T14:10:29.830Z,82.24
2019-05-28T14:11:29.291Z,82.54
2019-05-28T14:12:28.970Z,81.93
2019-05-28T14:13:28.959Z,82.59
2019-05-28T14:14:28.964Z,83.81
2019-05-28T14:15:28.961Z,83.36
2019-05-28T14:16:29.038Z,82.48
2019-05-28T14:17:29.203Z,83.40
2019-05-28T14:18:28.875Z,83.81
2019-05-28T14:19:28.846Z,83.91
2019-05-28T14:20:29.158Z,83.60
2019-05-28T14:21:28.841Z,83.34
2019-05-28T14:22:34.124Z,84.05
2019-05-28T14:23:29.810Z,85.51
2019-05-28T14:24:28.961Z,85.37
2019-05-28T14:25:28.814Z,85.11
2019-05-28T14:26:28.780Z,85.51
2019-05-28T14:27:28.763Z,85.47
2019-05-28T14:28:28.747Z,85.78
2019-05-28T14:29:28.734Z,85.37
2019-05-28T14:30:28.744Z,85.68
2019-05-28T14:31:28.709Z,85.06
2019-05-28T14:32:28.750Z,85.06
2019-05-28T14:33:28.686Z,85.58
2019-05-28T14:34:28.672Z,85.06
2019-05-28T14:35:28.698Z,84.76
2019-05-28T14:36:28.654Z,84.56
2019-05-28T14:37:28.673Z,84.25
2019-05-28T14:38:28.628Z,83.81
2019-05-28T14:39:40.390Z,83.74
2019-05-28T14:40:40.174Z,84.31
2019-05-28T14:41:28.598Z,84.21
2019-05-28T14:42:28.599Z,84.11
2019-05-28T14:43:28.605Z,84.07
2019-05-28T14:44:28.580Z,84.01
2019-05-28T14:45:28.872Z,83.81
2019-05-28T14:46:28.546Z,83.87
2019-05-28T14:47:28.557Z,84.48
2019-05-28T14:48:28.533Z,85.29
2019-05-28T14:49:28.530Z,85.19